Time;durP1;ratioP1;P1;durP2;ratioP2;P2;SDS_P1;SDS_P2;PMS_P1;PMS_P2;Temp;Humidity;BMP_temperature;BMP_pressure;BME280_temperature;BME280_humidity;BME280_pressure;Samples;Min_cycle;Max_cycle;Signal;HPM_P1;HPM_P2
2023/07/19 00:01:24;;;;;;;5.57;4.97;;;;;;;17.93;100.00;96632.91;5077644;28;20718;-65
2023/07/19 00:03:54;;;;;;;5.53;5.10;;;;;;;17.89;100.00;96636.34;5024003;28;20220;-68
2023/07/19 00:06:23;;;;;;;5.63;5.17;;;;;;;17.84;100.00;96631.72;5074371;28;20223;-67
2023/07/19 00:08:51;;;;;;;5.77;5.03;;;;;;;17.80;100.00;96638.63;5074285;28;20202;-65
2023/07/19 00:11:18;;;;;;;10.27;5.57;;;;;;;17.79;100.00;96637.00;5079363;28;20230;-66
2023/07/19 00:13:47;;;;;;;6.60;5.90;;;;;;;17.73;100.00;96648.69;5072259;28;20214;-64
2023/07/19 00:16:15;;;;;;;7.10;6.20;;;;;;;17.71;100.00;96648.13;5080456;28;20214;-65
2023/07/19 00:18:42;;;;;;;6.30;5.70;;;;;;;17.70;100.00;96651.88;4962561;28;20245;-69
2023/07/19 00:21:11;;;;;;;6.30;5.70;;;;;;;17.66;100.00;96643.47;5079280;28;20551;-67
2023/07/19 00:23:39;;;;;;;6.83;5.97;;;;;;;17.50;100.00;96637.06;5072385;28;20296;-65
2023/07/19 00:26:06;;;;;;;6.10;5.37;;;;;;;17.50;100.00;96634.38;5079282;28;20307;-65
2023/07/19 00:28:34;;;;;;;6.93;5.77;;;;;;;17.54;100.00;96626.69;5071107;28;20293;-67
2023/07/19 00:31:03;;;;;;;6.57;5.83;;;;;;;17.55;100.00;96622.94;5078280;28;20202;-65
2023/07/19 00:33:30;;;;;;;6.83;6.17;;;;;;;17.48;100.00;96618.56;5073325;28;20233;-66
2023/07/19 00:35:58;;;;;;;8.50;5.77;;;;;;;17.47;100.00;96624.16;5077894;28;20313;-67
2023/07/19 00:38:27;;;;;;;10.30;5.90;;;;;;;17.36;100.00;96621.31;5028212;28;20743;-66
2023/07/19 00:40:55;;;;;;;5.90;5.50;;;;;;;17.32;100.00;96630.88;5076260;28;20242;-65
2023/07/19 00:43:22;;;;;;;6.17;5.67;;;;;;;17.19;100.00;96623.13;5068114;28;20980;-65
2023/07/19 00:45:53;;;;;;;6.87;6.27;;;;;;;17.07;100.00;96632.03;5077754;28;20222;-65
2023/07/19 00:48:22;;;;;;;7.13;5.97;;;;;;;17.06;100.00;96638.44;4964089;28;20661;-65
2023/07/19 00:50:50;;;;;;;6.90;5.87;;;;;;;17.07;100.00;96639.25;5068431;28;20306;-67
2023/07/19 00:53:18;;;;;;;7.30;5.80;;;;;;;17.03;100.00;96638.91;5072259;28;20203;-65
2023/07/19 00:55:49;;;;;;;7.23;6.47;;;;;;;17.01;100.00;96643.69;5078424;28;20217;-66
2023/07/19 00:58:17;;;;;;;6.47;5.97;;;;;;;16.98;100.00;96648.69;5068359;28;20231;-67
2023/07/19 01:00:45;;;;;;;7.03;5.97;;;;;;;16.90;100.00;96639.97;5080259;28;20638;-65
2023/07/19 01:03:13;;;;;;;6.77;6.20;;;;;;;16.87;100.00;96645.81;5073676;28;20223;-67
2023/07/19 01:05:41;;;;;;;8.03;6.47;;;;;;;16.80;100.00;96639.78;5069493;28;20265;-64
2023/07/19 01:08:08;;;;;;;7.10;6.20;;;;;;;16.84;100.00;96650.81;5075125;28;20259;-65
2023/07/19 01:10:36;;;;;;;7.70;5.83;;;;;;;16.76;100.00;96650.13;5076655;28;20616;-65
2023/07/19 01:13:06;;;;;;;6.70;6.20;;;;;;;16.68;100.00;96653.19;5017613;28;20388;-64
2023/07/19 01:15:34;;;;;;;8.13;6.10;;;;;;;16.55;100.00;96642.75;5073663;28;20210;-67
2023/07/19 01:18:02;;;;;;;7.00;6.43;;;;;;;16.32;100.00;96613.16;4974544;28;20766;-66
2023/07/19 01:20:30;;;;;;;6.67;6.07;;;;;;;16.52;100.00;96644.03;5070608;28;20242;-66
2023/07/19 01:22:59;;;;;;;6.27;5.67;;;;;;;16.50;100.00;96635.44;5076843;28;20263;-68
2023/07/19 01:25:26;;;;;;;6.53;6.00;;;;;;;16.47;100.00;96627.88;5078705;28;20198;-66
2023/07/19 01:27:54;;;;;;;7.27;6.57;;;;;;;16.45;100.00;96629.97;5075034;28;20232;-68
2023/07/19 01:30:22;;;;;;;7.77;6.90;;;;;;;16.40;100.00;96637.91;5078187;28;20327;-65
2023/07/19 01:32:49;;;;;;;6.77;6.20;;;;;;;16.37;100.00;96631.16;5073887;28;20201;-68
2023/07/19 01:35:17;;;;;;;7.80;6.87;;;;;;;16.35;100.00;96639.41;5075968;28;20206;-64
2023/07/19 01:37:45;;;;;;;6.13;5.63;;;;;;;16.35;100.00;96646.59;5073949;28;20245;-69
2023/07/19 01:40:14;;;;;;;8.43;7.50;;;;;;;16.35;100.00;96655.47;5075624;28;20502;-65
2023/07/19 01:42:42;;;;;;;7.47;6.77;;;;;;;16.35;100.00;96642.09;5052187;28;20927;-67
2023/07/19 01:45:10;;;;;;;7.57;6.83;;;;;;;16.36;100.00;96637.53;5056089;28;20213;-65
2023/07/19 01:47:38;;;;;;;6.70;5.90;;;;;;;16.43;100.00;96632.88;5022773;28;21841;-66
2023/07/19 01:50:07;;;;;;;6.37;5.87;;;;;;;16.43;100.00;96638.22;5014212;28;20206;-67
2023/07/19 01:52:34;;;;;;;7.60;6.70;;;;;;;16.41;100.00;96629.63;5071631;28;20285;-67
2023/07/19 01:55:02;;;;;;;8.10;6.23;;;;;;;16.33;100.00;96636.16;5076169;28;20245;-66
2023/07/19 01:57:31;;;;;;;10.50;6.87;;;;;;;16.38;100.00;96637.31;5078386;28;20272;-68
2023/07/19 01:59:59;;;;;;;7.07;6.50;;;;;;;16.44;100.00;96633.69;5064851;28;20843;-65
2023/07/19 02:02:26;;;;;;;7.17;6.53;;;;;;;16.49;100.00;96636.47;5078998;28;20194;-70
2023/07/19 02:04:54;;;;;;;7.10;6.47;;;;;;;16.55;100.00;96622.16;5074596;28;20297;-67
2023/07/19 02:07:22;;;;;;;9.93;6.57;;;;;;;16.62;100.00;96622.84;5082949;28;20218;-66
2023/07/19 02:09:50;;;;;;;6.50;6.00;;;;;;;16.63;100.00;96632.47;5078846;28;20290;-65
2023/07/19 02:12:17;;;;;;;7.47;6.27;;;;;;;16.61;100.00;96634.59;5083836;28;21166;-65
2023/07/19 02:14:46;;;;;;;7.67;6.40;;;;;;;16.56;100.00;96631.00;5075299;28;20197;-65
2023/07/19 02:17:14;;;;;;;6.73;6.13;;;;;;;16.48;100.00;96635.69;5077373;28;20329;-66
2023/07/19 02:19:41;;;;;;;6.77;5.93;;;;;;;16.43;100.00;96642.78;5016190;28;20301;-65
2023/07/19 02:22:09;;;;;;;6.50;5.90;;;;;;;16.41;100.00;96634.19;5080758;28;20284;-67
2023/07/19 02:24:37;;;;;;;7.20;6.57;;;;;;;16.38;100.00;96640.00;4963625;28;20210;-65
2023/07/19 02:27:05;;;;;;;7.13;6.43;;;;;;;16.35;100.00;96630.56;5087403;28;20224;-64
2023/07/19 02:29:33;;;;;;;10.33;6.40;;;;;;;16.30;100.00;96633.97;5076395;28;21018;-67
2023/07/19 02:32:02;;;;;;;6.10;5.47;;;;;;;16.36;100.00;96640.22;5068481;28;20895;-64
2023/07/19 02:34:29;;;;;;;7.53;6.27;;;;;;;16.42;100.00;96633.91;5075110;28;20292;-66
2023/07/19 02:36:58;;;;;;;6.90;6.20;;;;;;;16.45;100.00;96641.47;5062211;28;20271;-65
2023/07/19 02:39:27;;;;;;;7.13;6.47;;;;;;;16.48;100.00;96642.88;5025994;28;20712;-65
2023/07/19 02:41:55;;;;;;;7.40;6.70;;;;;;;16.54;100.00;96635.78;5076424;28;20209;-65
2023/07/19 02:44:23;;;;;;;6.73;6.10;;;;;;;16.59;100.00;96641.22;5074871;28;20226;-66
2023/07/19 02:46:51;;;;;;;7.17;6.60;;;;;;;16.58;100.00;96640.41;5075458;28;20608;-67
2023/07/19 02:49:20;;;;;;;7.57;6.50;;;;;;;16.63;100.00;96639.72;5070147;28;20207;-68
2023/07/19 02:51:47;;;;;;;7.40;6.83;;;;;;;16.68;100.00;96644.38;5076700;28;20256;-66
2023/07/19 02:54:16;;;;;;;6.70;6.17;;;;;;;16.68;100.00;96650.50;5027326;28;20210;-65
2023/07/19 02:56:43;;;;;;;7.07;6.53;;;;;;;16.71;100.00;96649.25;5074258;28;20284;-65
2023/07/19 02:59:11;;;;;;;6.37;5.87;;;;;;;16.68;100.00;96628.31;4961199;28;20222;-69
2023/07/19 03:01:41;;;;;;;6.63;6.10;;;;;;;16.76;100.00;96650.13;5079048;28;20320;-65
2023/07/19 03:04:12;;;;;;;6.57;6.00;;;;;;;16.75;100.00;96647.72;5073781;28;20207;-66
2023/07/19 03:06:41;;;;;;;7.17;6.13;;;;;;;16.72;100.00;96648.97;5078605;28;20634;-65
2023/07/19 03:09:10;;;;;;;6.80;6.20;;;;;;;16.71;100.00;96642.00;5068244;28;20209;-65
2023/07/19 03:11:38;;;;;;;7.07;6.47;;;;;;;16.67;100.00;96648.88;5080101;28;20207;-67
2023/07/19 03:14:06;;;;;;;6.63;5.97;;;;;;;16.67;100.00;96645.38;5069052;28;20256;-69
2023/07/19 03:16:34;;;;;;;6.20;5.60;;;;;;;16.74;100.00;96651.44;5075432;28;20252;-67
2023/07/19 03:19:01;;;;;;;7.27;6.63;;;;;;;16.81;100.00;96643.25;5071875;28;20218;-65
2023/07/19 03:21:29;;;;;;;7.77;6.87;;;;;;;16.84;100.00;96642.78;5075957;28;20233;-65
2023/07/19 03:23:58;;;;;;;7.13;6.43;;;;;;;16.90;100.00;96642.66;5072384;28;20238;-68
2023/07/19 03:26:25;;;;;;;7.23;6.53;;;;;;;16.95;100.00;96647.31;5076810;28;20777;-66
2023/07/19 03:28:53;;;;;;;7.13;6.50;;;;;;;16.97;100.00;96641.69;4961034;28;20978;-65
2023/07/19 03:31:21;;;;;;;7.87;7.07;;;;;;;16.92;100.00;96639.75;5076456;28;20373;-67
2023/07/19 03:33:49;;;;;;;7.07;6.30;;;;;;;16.99;100.00;96635.09;5070731;28;20199;-68
2023/07/19 03:36:17;;;;;;;8.03;7.00;;;;;;;17.02;100.00;96642.66;5079400;28;20273;-67
2023/07/19 03:38:45;;;;;;;8.07;6.70;;;;;;;17.07;100.00;96656.13;5072294;28;20198;-66
2023/07/19 03:41:14;;;;;;;7.40;6.70;;;;;;;17.12;100.00;96671.47;5006053;28;20233;-67
2023/07/19 03:43:41;;;;;;;8.17;7.50;;;;;;;17.07;100.00;96688.25;5070225;28;20829;-68
2023/07/19 03:46:09;;;;;;;7.33;6.73;;;;;;;17.04;100.00;96701.25;5070631;28;20985;-65
2023/07/19 03:48:37;;;;;;;7.67;6.97;;;;;;;16.89;100.00;96699.88;5077156;28;20825;-66
2023/07/19 03:51:05;;;;;;;7.37;6.87;;;;;;;16.96;100.00;96678.34;5071210;28;20620;-66
2023/07/19 03:53:32;;;;;;;7.23;6.63;;;;;;;17.09;100.00;96677.31;5083434;28;20198;-69
2023/07/19 03:56:01;;;;;;;9.60;7.00;;;;;;;17.07;100.00;96677.53;5074031;28;20256;-67
2023/07/19 03:58:31;;;;;;;8.70;6.60;;;;;;;17.00;100.00;96676.03;5077089;28;20325;-67
2023/07/19 04:01:00;;;;;;;8.13;7.07;;;;;;;16.97;100.00;96668.44;4971419;28;20876;-67
2023/07/19 04:03:28;;;;;;;6.33;5.73;;;;;;;16.93;100.00;96676.97;5077302;28;20272;-67
2023/07/19 04:05:57;;;;;;;7.23;6.07;;;;;;;16.98;100.00;96675.47;5068432;28;20228;-69
2023/07/19 04:08:25;;;;;;;6.87;6.37;;;;;;;17.03;100.00;96667.53;5077312;28;20228;-67
2023/07/19 04:10:52;;;;;;;7.10;6.57;;;;;;;17.02;100.00;96665.91;5073825;28;20294;-70
2023/07/19 04:13:20;;;;;;;6.77;6.07;;;;;;;17.08;100.00;96667.66;5075311;28;20735;-66
2023/07/19 04:15:49;;;;;;;6.90;5.43;;;;;;;17.16;100.00;96680.66;5067370;28;20236;-68
2023/07/19 04:18:17;;;;;;;7.10;6.50;;;;;;;17.21;100.00;96670.03;5082477;28;20272;-65
2023/07/19 04:20:44;;;;;;;7.33;6.57;;;;;;;17.28;100.00;96664.53;5068553;28;20812;-68
2023/07/19 04:23:13;;;;;;;6.47;5.87;;;;;;;17.23;100.00;96671.66;5012341;28;21054;-68
2023/07/19 04:25:41;;;;;;;7.27;6.10;;;;;;;17.22;100.00;96673.50;5080136;28;20293;-66
2023/07/19 04:28:08;;;;;;;5.97;5.47;;;;;;;17.23;100.00;96668.97;5072988;28;20199;-69
2023/07/19 04:30:36;;;;;;;6.27;5.70;;;;;;;17.24;100.00;96668.75;5078252;28;20293;-67
2023/07/19 04:33:06;;;;;;;8.60;6.13;;;;;;;17.10;100.00;96637.97;4987071;28;20214;-69
2023/07/19 04:35:34;;;;;;;6.07;5.67;;;;;;;17.36;100.00;96657.97;5067372;28;20214;-68
2023/07/19 04:38:03;;;;;;;6.50;5.90;;;;;;;17.40;100.00;96659.09;5009666;28;20214;-70
2023/07/19 04:40:31;;;;;;;6.97;6.10;;;;;;;17.39;100.00;96662.84;5079717;28;20305;-65
2023/07/19 04:43:00;;;;;;;6.80;6.20;;;;;;;17.42;100.00;96664.25;5070801;28;20302;-68
2023/07/19 04:45:28;;;;;;;7.27;6.30;;;;;;;17.54;100.00;96662.31;5079400;28;20229;-65
2023/07/19 04:47:56;;;;;;;7.60;6.20;;;;;;;17.48;100.00;96671.31;5068261;28;20642;-65
2023/07/19 04:50:25;;;;;;;5.87;5.23;;;;;;;17.56;100.00;96670.91;5080443;28;20198;-65
2023/07/19 04:52:53;;;;;;;7.90;6.50;;;;;;;17.64;100.00;96672.38;5066833;28;20230;-66
2023/07/19 04:55:21;;;;;;;6.93;6.30;;;;;;;17.66;100.00;96667.59;5078906;28;20198;-68
2023/07/19 04:57:49;;;;;;;7.33;6.43;;;;;;;17.80;100.00;96657.38;5068763;28;20250;-66
2023/07/19 05:00:17;;;;;;;6.57;5.83;;;;;;;17.83;100.00;96656.88;5073624;28;20284;-66
2023/07/19 05:02:46;;;;;;;6.13;5.63;;;;;;;17.82;100.00;96657.94;5070850;28;20294;-65
2023/07/19 05:05:14;;;;;;;8.03;6.67;;;;;;;17.86;100.00;96659.06;5071604;28;20218;-66
2023/07/19 05:07:43;;;;;;;6.83;5.90;;;;;;;17.89;100.00;96660.47;4959982;28;20661;-65
2023/07/19 05:10:11;;;;;;;7.13;6.47;;;;;;;17.86;100.00;96658.28;5076533;28;20802;-65
2023/07/19 05:12:38;;;;;;;6.10;5.70;;;;;;;17.89;100.00;96655.91;5076210;28;20291;-66
2023/07/19 05:15:07;;;;;;;6.63;6.03;;;;;;;17.95;100.00;96656.81;5077559;28;20242;-67
2023/07/19 05:17:35;;;;;;;6.30;5.80;;;;;;;17.99;100.00;96659.78;5075224;28;20283;-67
2023/07/19 05:20:05;;;;;;;6.47;5.87;;;;;;;18.01;100.00;96655.06;5074485;28;20613;-66
2023/07/19 05:22:32;;;;;;;6.60;6.03;;;;;;;18.06;100.00;96653.25;5074982;28;20300;-68
2023/07/19 05:25:03;;;;;;;6.07;5.53;;;;;;;18.19;100.00;96652.09;5077884;28;20198;-67
2023/07/19 05:27:31;;;;;;;7.53;6.83;;;;;;;18.45;100.00;96659.69;5070830;28;20223;-66
2023/07/19 05:29:58;;;;;;;6.77;6.10;;;;;;;18.31;100.00;96651.19;5075344;28;20202;-66
2023/07/19 05:32:26;;;;;;;6.17;5.60;;;;;;;18.39;100.00;96647.28;5073610;28;20198;-66
2023/07/19 05:34:54;;;;;;;8.03;6.87;;;;;;;18.36;100.00;96651.25;5075375;28;20210;-65
2023/07/19 05:37:21;;;;;;;7.00;6.00;;;;;;;18.31;100.00;96653.88;5074554;28;20343;-66
2023/07/19 05:39:50;;;;;;;6.07;5.57;;;;;;;18.17;100.00;96643.50;5077747;28;20297;-66
2023/07/19 05:42:19;;;;;;;6.53;5.93;;;;;;;18.23;100.00;96655.91;4962427;28;20319;-66
2023/07/19 05:44:46;;;;;;;6.63;6.13;;;;;;;18.27;100.00;96666.97;5084720;28;20289;-67
2023/07/19 05:47:14;;;;;;;7.17;5.90;;;;;;;18.56;100.00;96666.00;5074389;28;20811;-68
2023/07/19 05:49:42;;;;;;;7.07;6.37;;;;;;;19.02;100.00;96679.22;5082170;28;20267;-67
2023/07/19 05:52:10;;;;;;;6.83;6.33;;;;;;;19.12;100.00;96671.28;5073217;28;20408;-67
2023/07/19 05:54:38;;;;;;;6.80;5.87;;;;;;;19.27;100.00;96673.31;5081871;28;20317;-66
2023/07/19 05:57:06;;;;;;;6.67;5.67;;;;;;;19.14;100.00;96663.78;5075322;28;20225;-68
2023/07/19 05:59:35;;;;;;;6.83;6.33;;;;;;;19.48;100.00;96657.41;5073214;28;20206;-66
2023/07/19 06:02:03;;;;;;;7.40;6.80;;;;;;;19.64;100.00;96656.50;5075608;28;20313;-68
2023/07/19 06:04:31;;;;;;;6.60;6.00;;;;;;;19.83;100.00;96655.28;5082912;28;20194;-66
2023/07/19 06:06:59;;;;;;;7.10;6.50;;;;;;;19.93;100.00;96650.84;5079946;28;20327;-68
2023/07/19 06:09:27;;;;;;;6.67;6.10;;;;;;;20.00;100.00;96650.59;5082543;28;20312;-66
2023/07/19 06:11:56;;;;;;;6.53;5.93;;;;;;;19.99;100.00;96632.06;4979022;28;21173;-66
2023/07/19 06:14:25;;;;;;;7.07;6.37;;;;;;;19.92;100.00;96656.47;5080511;28;20589;-67
2023/07/19 06:16:54;;;;;;;8.13;6.87;;;;;;;19.91;100.00;96646.78;5075607;28;20325;-68
2023/07/19 06:19:21;;;;;;;7.23;6.53;;;;;;;20.15;100.00;96657.19;5080031;28;20207;-66
2023/07/19 06:21:51;;;;;;;7.67;7.07;;;;;;;20.22;100.00;96657.75;5077368;28;20317;-68
2023/07/19 06:24:18;;;;;;;8.07;6.77;;;;;;;20.31;100.00;96666.16;5077367;28;20646;-67
2023/07/19 06:26:46;;;;;;;9.20;6.40;;;;;;;20.27;100.00;96665.84;5078651;28;20230;-68
2023/07/19 06:29:13;;;;;;;8.53;6.20;;;;;;;20.35;100.00;96664.56;5075906;28;20310;-67
2023/07/19 06:31:41;;;;;;;7.77;6.93;;;;;;;20.22;100.00;96653.16;5077816;28;20273;-68
2023/07/19 06:34:10;;;;;;;6.50;5.90;;;;;;;20.33;100.00;96645.19;5074433;28;20199;-66
2023/07/19 06:36:38;;;;;;;7.33;6.63;;;;;;;20.50;100.00;96645.81;5079881;28;20222;-67
2023/07/19 06:39:05;;;;;;;7.00;6.40;;;;;;;20.81;100.00;96651.38;5077104;28;20754;-66
2023/07/19 06:41:34;;;;;;;7.37;6.70;;;;;;;20.59;100.00;96651.50;5022872;28;21545;-66
2023/07/19 06:44:02;;;;;;;7.20;6.60;;;;;;;20.90;100.00;96650.84;5026126;28;20206;-67
2023/07/19 06:46:29;;;;;;;7.07;6.47;;;;;;;20.57;100.00;96658.22;5080682;28;20261;-68
2023/07/19 06:48:57;;;;;;;6.60;6.07;;;;;;;20.90;100.00;96643.59;5073725;28;20213;-67
2023/07/19 06:51:26;;;;;;;6.00;5.50;;;;;;;21.15;100.00;96646.63;5078150;28;20306;-68
2023/07/19 06:53:54;;;;;;;6.30;5.80;;;;;;;21.03;100.00;96645.00;5078068;28;20285;-68
2023/07/19 06:56:41;;;;;;;6.80;6.20;;;;;;;21.12;100.00;96650.66;5076864;28;20956;-68
2023/07/19 06:59:08;;;;;;;8.13;6.30;;;;;;;21.06;100.00;96652.53;5078392;28;20241;-66
2023/07/19 07:01:36;;;;;;;6.97;6.33;;;;;;;21.58;100.00;96654.50;5079999;28;20327;-68
2023/07/19 07:04:07;;;;;;;7.10;6.47;;;;;;;21.90;100.00;96657.00;5076079;28;20198;-67
2023/07/19 07:06:36;;;;;;;7.13;6.53;;;;;;;21.81;100.00;96655.91;5078143;28;20522;-68
2023/07/19 07:09:04;;;;;;;9.03;6.27;;;;;;;21.66;100.00;96660.19;5078477;28;20253;-67
2023/07/19 07:11:31;;;;;;;8.00;6.43;;;;;;;21.62;100.00;96655.59;5079238;28;20198;-68
2023/07/19 07:13:59;;;;;;;8.53;7.07;;;;;;;21.64;100.00;96656.97;5075586;28;20227;-68
2023/07/19 07:16:28;;;;;;;6.63;6.03;;;;;;;22.16;100.00;96648.06;5040522;28;20260;-66
2023/07/19 07:18:56;;;;;;;7.53;6.87;;;;;;;22.19;100.00;96648.34;5015219;28;20216;-67
2023/07/19 07:21:24;;;;;;;8.27;6.67;;;;;;;22.34;100.00;96649.38;5078591;28;20206;-68
2023/07/19 07:23:53;;;;;;;7.33;6.57;;;;;;;22.10;100.00;96644.56;5080014;28;21798;-67
2023/07/19 07:26:20;;;;;;;8.57;6.93;;;;;;;22.21;100.00;96626.47;5080121;28;20273;-67
2023/07/19 07:28:48;;;;;;;7.77;6.47;;;;;;;22.32;100.00;96646.16;5072144;28;20213;-67
2023/07/19 07:31:16;;;;;;;8.83;6.87;;;;;;;22.21;100.00;96640.78;5079803;28;20222;-68
2023/07/19 07:33:43;;;;;;;7.10;6.50;;;;;;;22.25;100.00;96630.22;5077185;28;20318;-67
2023/07/19 07:36:11;;;;;;;8.47;7.23;;;;;;;22.17;100.00;96634.31;5077820;28;20222;-66
2023/07/19 07:38:38;;;;;;;6.47;5.70;;;;;;;22.47;100.00;96637.22;5076330;28;20202;-66
2023/07/19 07:41:11;;;;;;;6.30;5.80;;;;;;;22.60;100.00;96639.34;5075917;28;20747;-66
2023/07/19 07:43:38;;;;;;;7.83;5.70;;;;;;;22.69;100.00;96621.47;5074726;28;20338;-68
2023/07/19 07:46:06;;;;;;;8.33;7.10;;;;;;;22.65;100.00;96643.94;5077828;28;20356;-65
2023/07/19 07:48:34;;;;;;;6.67;5.90;;;;;;;22.64;100.00;96635.00;4965337;28;20245;-66
2023/07/19 07:51:01;;;;;;;6.43;5.93;;;;;;;22.43;100.00;96642.31;5077593;28;20202;-65
2023/07/19 07:53:29;;;;;;;6.43;5.90;;;;;;;22.31;100.00;96641.81;5074285;28;20679;-66
2023/07/19 07:55:58;;;;;;;6.57;5.97;;;;;;;22.65;100.00;96641.22;5080546;28;20234;-68
2023/07/19 07:58:27;;;;;;;7.80;6.93;;;;;;;22.28;100.00;96648.56;5073459;28;20574;-66
2023/07/19 08:00:55;;;;;;;7.60;6.90;;;;;;;22.50;100.00;96645.56;5084040;28;20288;-64
2023/07/19 08:03:22;;;;;;;6.30;5.77;;;;;;;22.50;100.00;96653.66;5076499;28;20226;-65
2023/07/19 08:05:50;;;;;;;6.77;6.17;;;;;;;22.68;100.00;96648.78;5076522;28;20213;-65
2023/07/19 08:08:18;;;;;;;7.23;6.20;;;;;;;22.69;100.00;96650.38;5075932;28;20572;-66
2023/07/19 08:10:47;;;;;;;5.90;5.30;;;;;;;22.80;100.00;96654.66;5078925;28;20202;-66
2023/07/19 08:13:16;;;;;;;6.03;5.57;;;;;;;22.93;100.00;96655.16;5071867;28;20296;-65
2023/07/19 08:15:45;;;;;;;8.13;5.60;;;;;;;23.20;100.00;96664.75;5081453;28;20206;-66
2023/07/19 08:18:12;;;;;;;6.23;5.70;;;;;;;23.33;100.00;96658.78;5071812;28;20285;-66
2023/07/19 08:20:40;;;;;;;5.33;4.93;;;;;;;23.52;100.00;96652.69;5076575;28;20263;-66
2023/07/19 08:23:07;;;;;;;6.90;6.17;;;;;;;23.54;100.00;96648.63;4963755;28;20553;-66
2023/07/19 08:25:35;;;;;;;5.80;5.37;;;;;;;23.37;100.00;96650.88;5080662;28;20773;-66
2023/07/19 08:28:03;;;;;;;6.27;5.77;;;;;;;23.32;100.00;96654.44;5074725;28;20293;-66
2023/07/19 08:30:31;;;;;;;7.67;6.33;;;;;;;23.22;100.00;96647.19;5082906;28;20863;-66
2023/07/19 08:33:05;;;;;;;5.93;5.47;;;;;;;23.59;100.00;96650.47;5077393;28;20190;-65
2023/07/19 08:35:33;;;;;;;7.40;6.27;;;;;;;23.50;100.00;96646.75;5075884;28;20206;-66
2023/07/19 08:38:01;;;;;;;5.87;5.27;;;;;;;23.88;100.00;96643.50;5077279;28;20194;-65
2023/07/19 08:40:31;;;;;;;6.13;5.63;;;;;;;23.84;100.00;96640.56;5077979;28;20202;-65
2023/07/19 08:42:59;;;;;;;6.50;5.73;;;;;;;23.93;100.00;96633.44;5074896;28;20226;-65
2023/07/19 08:45:27;;;;;;;7.20;6.50;;;;;;;24.12;100.00;96635.47;5070766;28;20291;-66
2023/07/19 08:47:54;;;;;;;6.80;6.10;;;;;;;24.37;100.00;96634.41;5073365;28;20301;-65
2023/07/19 08:50:25;;;;;;;6.87;6.07;;;;;;;24.40;100.00;96631.13;5074978;28;20264;-68
2023/07/19 08:52:53;;;;;;;5.97;5.47;;;;;;;24.48;100.00;96620.75;5072264;28;20236;-67
2023/07/19 08:55:21;;;;;;;6.63;6.07;;;;;;;24.48;100.00;96629.69;5077692;28;20194;-67
2023/07/19 08:57:49;;;;;;;6.83;6.00;;;;;;;24.56;100.00;96623.63;4965388;28;20769;-66
2023/07/19 09:00:17;;;;;;;7.40;6.73;;;;;;;24.55;100.00;96616.59;5074997;28;20205;-66
2023/07/19 09:02:45;;;;;;;6.90;6.20;;;;;;;24.50;100.00;96623.97;5077354;28;20669;-66
2023/07/19 09:05:15;;;;;;;6.27;5.73;;;;;;;24.43;100.00;96616.19;5076930;28;20186;-66
2023/07/19 09:07:46;;;;;;;6.17;5.73;;;;;;;24.57;100.00;96611.72;5071986;28;20953;-65
2023/07/19 09:10:14;;;;;;;5.67;5.00;;;;;;;24.89;100.00;96608.66;5075286;28;20225;-65
2023/07/19 09:12:43;;;;;;;8.80;6.17;;;;;;;25.13;100.00;96603.97;5077953;28;20237;-65
2023/07/19 09:15:13;;;;;;;6.10;5.57;;;;;;;25.26;98.06;96599.72;5077571;28;20380;-65
2023/07/19 09:17:41;;;;;;;6.40;5.90;;;;;;;25.02;98.71;96594.38;5074231;28;20308;-68
2023/07/19 09:20:10;;;;;;;6.43;5.80;;;;;;;25.15;100.00;96588.22;5066138;28;20261;-66
2023/07/19 09:22:39;;;;;;;6.87;5.80;;;;;;;26.00;100.00;96592.88;5074465;28;20321;-66
2023/07/19 09:25:10;;;;;;;7.37;6.20;;;;;;;26.27;89.90;96583.16;5076683;28;20202;-67
2023/07/19 09:27:38;;;;;;;6.17;5.53;;;;;;;26.61;88.20;96583.88;4963581;28;20231;-66
2023/07/19 09:30:09;;;;;;;6.17;5.57;;;;;;;26.62;89.53;96557.50;5078048;28;20284;-65
2023/07/19 09:32:38;;;;;;;5.87;5.33;;;;;;;27.18;85.67;96582.69;5077757;28;20864;-66
2023/07/19 09:35:07;;;;;;;6.03;5.50;;;;;;;27.43;82.73;96585.91;5074550;28;20765;-68
2023/07/19 09:37:35;;;;;;;5.80;5.37;;;;;;;27.56;79.82;96582.34;5076268;28;20219;-68
2023/07/19 09:40:04;;;;;;;6.87;5.50;;;;;;;27.59;78.85;96578.22;5073424;28;20288;-67
2023/07/19 09:42:36;;;;;;;6.00;4.90;;;;;;;27.88;75.46;96582.41;5070140;28;20666;-67
2023/07/19 09:45:06;;;;;;;6.67;5.23;;;;;;;27.84;68.59;96582.22;5010801;28;20213;-66
2023/07/19 09:47:35;;;;;;;5.03;4.73;;;;;;;27.92;71.18;96585.28;5074640;28;20311;-66
2023/07/19 09:50:06;;;;;;;5.97;4.83;;;;;;;27.86;69.97;96587.38;5071898;28;20256;-68
2023/07/19 09:52:37;;;;;;;4.80;4.47;;;;;;;28.24;70.53;96586.13;5078204;28;20289;-67
2023/07/19 09:55:06;;;;;;;4.27;4.07;;;;;;;28.49;61.85;96586.53;5071418;28;20202;-66
2023/07/19 09:57:38;;;;;;;5.67;4.90;;;;;;;27.88;57.93;96596.03;5077213;28;20229;-65
2023/07/19 10:00:06;;;;;;;4.83;4.40;;;;;;;27.71;59.24;96583.09;4963318;28;20871;-66
2023/07/19 10:02:35;;;;;;;5.50;4.77;;;;;;;27.58;56.14;96579.34;5073100;28;20253;-66
2023/07/19 10:05:07;;;;;;;4.77;4.30;;;;;;;27.44;58.18;96588.31;5066864;28;20240;-67
2023/07/19 10:07:36;;;;;;;6.50;4.97;;;;;;;27.88;58.17;96585.91;5075487;28;20320;-68
2023/07/19 10:10:18;;;;;;;4.30;3.90;;;;;;;27.27;53.20;96583.53;5071126;28;20229;-67
2023/07/19 10:12:48;;;;;;;5.30;4.83;;;;;;;27.53;54.44;96582.19;5080232;28;20198;-66
2023/07/19 10:15:18;;;;;;;4.53;4.00;;;;;;;27.64;55.24;96574.56;5071855;28;20198;-68
2023/07/19 10:17:58;;;;;;;4.17;3.77;;;;;;;27.74;55.33;96577.81;5072874;28;20240;-68
2023/07/19 10:20:28;;;;;;;4.90;4.17;;;;;;;27.53;52.76;96566.66;5068981;28;20237;-66
2023/07/19 10:22:57;;;;;;;4.20;3.83;;;;;;;27.82;49.78;96584.44;5075756;28;20209;-66
2023/07/19 10:25:27;;;;;;;5.13;4.03;;;;;;;27.70;50.22;96576.06;5077408;28;20612;-67
2023/07/19 10:27:58;;;;;;;4.10;3.60;;;;;;;27.64;51.11;96577.28;5083005;28;20292;-67
2023/07/19 10:30:51;;;;;;;4.70;4.00;;;;;;;27.48;52.02;96574.13;5072819;28;20674;-68
2023/07/19 10:33:21;;;;;;;6.90;4.27;;;;;;;27.28;52.96;96573.47;5078061;28;20285;-65
2023/07/19 10:35:50;;;;;;;4.77;4.37;;;;;;;26.94;52.06;96574.78;4970609;28;20292;-66
2023/07/19 10:38:20;;;;;;;7.23;4.23;;;;;;;26.78;53.19;96572.38;5079710;28;20202;-66
2023/07/19 10:40:50;;;;;;;4.10;3.77;;;;;;;26.75;53.38;96566.75;5074808;28;20220;-66
2023/07/19 10:43:19;;;;;;;4.33;3.83;;;;;;;26.72;51.13;96562.75;5080306;28;20238;-67
2023/07/19 10:46:03;;;;;;;4.20;3.87;;;;;;;26.87;50.32;96557.00;5071672;28;20823;-66
2023/07/19 10:48:32;;;;;;;3.90;3.60;;;;;;;27.21;50.45;96559.53;5076027;28;20244;-67
2023/07/19 10:51:01;;;;;;;4.27;3.70;;;;;;;27.19;49.45;96559.03;5070319;28;21741;-66
2023/07/19 10:53:29;;;;;;;4.87;4.00;;;;;;;27.20;50.13;96547.03;5078542;28;20667;-67
2023/07/19 10:55:56;;;;;;;4.10;3.80;;;;;;;27.30;48.11;96535.91;5073317;28;20867;-65
2023/07/19 10:58:26;;;;;;;3.70;3.50;;;;;;;27.56;47.39;96549.72;5078201;28;20299;-66
2023/07/19 11:00:54;;;;;;;3.70;3.40;;;;;;;27.02;45.86;96549.59;5075554;28;20376;-66
2023/07/19 11:03:26;;;;;;;4.57;3.30;;;;;;;26.99;45.83;96537.44;5078365;28;20209;-66
2023/07/19 11:05:54;;;;;;;4.03;3.73;;;;;;;27.07;46.27;96543.25;5070889;28;20226;-66
2023/07/19 11:08:23;;;;;;;4.33;3.47;;;;;;;27.30;45.85;96538.63;5082903;28;20287;-67
2023/07/19 11:10:51;;;;;;;6.37;3.90;;;;;;;27.30;45.40;96533.19;4970281;28;20210;-66
2023/07/19 11:13:20;;;;;;;4.37;3.93;;;;;;;27.60;46.16;96530.84;5073182;28;20206;-65
2023/07/19 11:15:54;;;;;;;4.07;3.77;;;;;;;27.53;47.32;96533.22;5075378;28;20223;-65
2023/07/19 11:18:27;;;;;;;4.93;3.80;;;;;;;27.80;46.05;96531.44;5078825;28;20259;-65
2023/07/19 11:20:54;;;;;;;4.07;3.73;;;;;;;27.67;46.24;96536.66;5072123;28;20222;-66
2023/07/19 11:23:22;;;;;;;5.20;4.30;;;;;;;27.50;45.87;96539.25;5077414;28;20238;-67
2023/07/19 11:25:50;;;;;;;3.87;3.57;;;;;;;27.21;45.91;96540.47;5077395;28;20323;-66
2023/07/19 11:28:36;;;;;;;3.93;3.60;;;;;;;26.97;47.40;96531.50;5076882;28;20228;-66
2023/07/19 11:31:05;;;;;;;4.80;4.10;;;;;;;27.02;47.96;96533.28;5071272;28;20721;-66
2023/07/19 11:33:36;;;;;;;4.37;3.97;;;;;;;27.27;47.69;96520.22;5077130;28;20239;-66